Cincinnati, OH

4:57 AM EDT on July 30, 2016 (GMT -0400)
Newport Aquarium | | Change Station

Elev 499 ft 39.09 °N, 84.50 °W | Updated 1 minute ago

Partly Cloudy
Partly Cloudy
73.0 °F
Feels Like 71 °F
N
0.0
Wind Variable Wind from ESE
Gusts 5.0 mph

Today
High -- | Low -- °F
--% Chance of Precip.
Yesterday
High -- | Low -- °F
Precip. -- in
Pressure 29.90 in
Visibility 6.0 miles
Clouds Few 11000 ft
Heat Index 71 °F
Dew Point 69 °F
Humidity 88%
Rainfall 0.94 in
Snow Depth Not available.
6:37 AM 8:51 PM
Waning Crescent, 15% visible
METAR KLUK 300853Z AUTO 00000KT 6SM BR FEW110 21/21 A2991 RMK AO2 SLP123 T02110211 56006 $
Pressure 29.90 in
Visibility 6.0 miles
Clouds Few 11000 ft
Heat Index 71 °F
Dew Point 69 °F
Humidity 88%
Rainfall 0.94 in
Snow Depth Not available.
6:37 AM 8:51 PM
Waning Crescent, 15% visible
METAR KLUK 300853Z AUTO 00000KT 6SM BR FEW110 21/21 A2991 RMK AO2 SLP123 T02110211 56006 $

10-Day Weather Forecast

Almanac

Astronomy

Jul. 30, 2016 Rise Set
Actual Time
Civil Twilight
Nautical Twilight
Astronomical Twilight
Moon
Length of Visible Light
Length of Day
Tomorrow will be .
, % of the Moon is Illuminated

Today's Extremes

State Highs State Lows

Community

WunderPhotos

Upload Photos

1,928,508 photos uploaded!

WunderBlog® & News

Nearby

Air Quality

  Air Quality AQ Index Pollutant
Not available.

Snow Depth

Station Depth Elevation

Earthquake Activity

City Distance Mag. Time & Date
Minimum magnitude displayed is 2.5.

Coastal Water Temperatures

Place Temperature

Stations

Nearby Weather Stations

Station Location Temp. Windchill Dew Point Humidity Wind Precip. Elev Updated Type
                   

Watches & Warnings

There are currently no watches in effect.